Pisa / San Giusto - Galileo Galilei International Airport LIRP

Flugplatz Daten

Name: Pisa / San Giusto - Galileo Galilei International Airport

Ident: LIRP

Lat: 43,68389893

Long: 10,3927002

Platzhöhe: 6 ft

IataCode: PSA

City: Pisa

Homepage: http://www.pisa-airport.com/

Metar

2021/12/03 23:15
LIRP 032315Z 09005KT CAVOK 02/01 Q1014 NOSIG

Taf

2021/12/03 18:00
TAF LIRP 031700Z 0318/0418 09008KT CAVOK PROB30
TEMPO 0322/0406 5000 BR NSC
BECMG 0403/0405 FEW030 SCT080
TEMPO 0409/0418 5000 RA BR SCT020 BKN060 PROB40
TEMPO 0412/0418 4000 SHRA FEW020CB BKN020
BECMG 0415/0417 25010KT
Gewünschte Webcam nicht vorhanden? Dann fügen Sie eine hinzu. Sie wird dann so schnell wie möglich freigeschaltet
Url: Title: